sensor_id;sensor_type;location;lat;lon;timestamp;pressure;altitude;pressure_sealevel;temperature;humidity
74163;BME280;62515;52.758;5.076;2023-05-10T00:01:19;100909.19;;;11.12;100.00
74163;BME280;62515;52.758;5.076;2023-05-10T00:03:45;100907.47;;;11.11;100.00
74163;BME280;62515;52.758;5.076;2023-05-10T00:06:12;100915.56;;;11.09;100.00
74163;BME280;62515;52.758;5.076;2023-05-10T00:08:41;100908.53;;;11.08;100.00
74163;BME280;62515;52.758;5.076;2023-05-10T00:11:08;100910.56;;;11.05;100.00
74163;BME280;62515;52.758;5.076;2023-05-10T00:13:35;100905.97;;;11.07;100.00
74163;BME280;62515;52.758;5.076;2023-05-10T00:16:01;100899.16;;;11.02;100.00
74163;BME280;62515;52.758;5.076;2023-05-10T00:18:28;100908.22;;;11.00;100.00
74163;BME280;62515;52.758;5.076;2023-05-10T00:20:55;100896.72;;;10.99;100.00
74163;BME280;62515;52.758;5.076;2023-05-10T00:23:22;100895.13;;;10.97;100.00
74163;BME280;62515;52.758;5.076;2023-05-10T00:25:50;100882.28;;;10.91;100.00
74163;BME280;62515;52.758;5.076;2023-05-10T00:28:17;100896.22;;;10.94;100.00
74163;BME280;62515;52.758;5.076;2023-05-10T00:30:43;100880.16;;;10.83;100.00
74163;BME280;62515;52.758;5.076;2023-05-10T00:33:10;100891.41;;;10.99;100.00
74163;BME280;62515;52.758;5.076;2023-05-10T00:35:37;100897.63;;;10.87;100.00
74163;BME280;62515;52.758;5.076;2023-05-10T00:38:03;100893.91;;;10.77;100.00
74163;BME280;62515;52.758;5.076;2023-05-10T00:40:30;100904.75;;;10.87;100.00
74163;BME280;62515;52.758;5.076;2023-05-10T00:43:03;100905.81;;;10.84;100.00
74163;BME280;62515;52.758;5.076;2023-05-10T00:45:31;100901.22;;;10.86;100.00
74163;BME280;62515;52.758;5.076;2023-05-10T00:47:59;100893.03;;;10.89;100.00
74163;BME280;62515;52.758;5.076;2023-05-10T00:50:27;100894.88;;;10.89;100.00
74163;BME280;62515;52.758;5.076;2023-05-10T00:52:55;100883.69;;;10.84;100.00
74163;BME280;62515;52.758;5.076;2023-05-10T00:55:22;100895.91;;;10.86;100.00
74163;BME280;62515;52.758;5.076;2023-05-10T00:57:49;100883.69;;;10.84;100.00
74163;BME280;62515;52.758;5.076;2023-05-10T01:00:17;100876.03;;;10.79;100.00
74163;BME280;62515;52.758;5.076;2023-05-10T01:02:44;100888.78;;;10.87;100.00
74163;BME280;62515;52.758;5.076;2023-05-10T01:05:11;100894.50;;;10.93;100.00
74163;BME280;62515;52.758;5.076;2023-05-10T01:07:38;100892.81;;;10.92;100.00
74163;BME280;62515;52.758;5.076;2023-05-10T01:10:07;100887.91;;;10.86;100.00
74163;BME280;62515;52.758;5.076;2023-05-10T01:12:37;100887.09;;;10.86;100.00
74163;BME280;62515;52.758;5.076;2023-05-10T01:15:06;100897.94;;;10.83;100.00
74163;BME280;62515;52.758;5.076;2023-05-10T01:17:38;100897.84;;;10.84;100.00
74163;BME280;62515;52.758;5.076;2023-05-10T01:20:07;100900.31;;;10.75;100.00
74163;BME280;62515;52.758;5.076;2023-05-10T01:22:53;100895.00;;;10.75;100.00
74163;BME280;62515;52.758;5.076;2023-05-10T01:25:54;100893.41;;;10.72;100.00
74163;BME280;62515;52.758;5.076;2023-05-10T01:31:30;100902.66;;;10.79;100.00
74163;BME280;62515;52.758;5.076;2023-05-10T01:34:06;100896.03;;;10.85;100.00
74163;BME280;62515;52.758;5.076;2023-05-10T01:36:40;100903.66;;;10.89;100.00
74163;BME280;62515;52.758;5.076;2023-05-10T01:39:14;100908.28;;;10.87;100.00
74163;BME280;62515;52.758;5.076;2023-05-10T01:41:47;100904.56;;;10.77;100.00
74163;BME280;62515;52.758;5.076;2023-05-10T01:44:19;100904.34;;;10.80;100.00
74163;BME280;62515;52.758;5.076;2023-05-10T01:46:53;100913.50;;;10.76;100.00
74163;BME280;62515;52.758;5.076;2023-05-10T01:49:26;100901.47;;;10.83;100.00
74163;BME280;62515;52.758;5.076;2023-05-10T01:52:00;100903.25;;;10.83;100.00
74163;BME280;62515;52.758;5.076;2023-05-10T01:54:32;100909.44;;;10.83;100.00
74163;BME280;62515;52.758;5.076;2023-05-10T01:57:03;100907.00;;;10.80;100.00
74163;BME280;62515;52.758;5.076;2023-05-10T01:59:34;100914.13;;;10.80;100.00
74163;BME280;62515;52.758;5.076;2023-05-10T02:02:02;100903.47;;;10.80;100.00
74163;BME280;62515;52.758;5.076;2023-05-10T02:04:35;100915.63;;;10.84;100.00
74163;BME280;62515;52.758;5.076;2023-05-10T02:07:03;100911.16;;;10.84;100.00
74163;BME280;62515;52.758;5.076;2023-05-10T02:09:32;100916.25;;;10.87;100.00
74163;BME280;62515;52.758;5.076;2023-05-10T02:12:01;100918.19;;;10.85;100.00
74163;BME280;62515;52.758;5.076;2023-05-10T02:14:30;100919.66;;;10.89;100.00
74163;BME280;62515;52.758;5.076;2023-05-10T02:16:59;100921.34;;;10.90;100.00
74163;BME280;62515;52.758;5.076;2023-05-10T02:19:28;100919.47;;;10.80;100.00
74163;BME280;62515;52.758;5.076;2023-05-10T02:21:59;100920.84;;;10.85;100.00
74163;BME280;62515;52.758;5.076;2023-05-10T02:24:28;100924.25;;;10.87;100.00
74163;BME280;62515;52.758;5.076;2023-05-10T02:26:56;100923.50;;;10.85;100.00
74163;BME280;62515;52.758;5.076;2023-05-10T02:29:24;100934.81;;;10.89;100.00
74163;BME280;62515;52.758;5.076;2023-05-10T02:31:54;100928.41;;;10.91;100.00
74163;BME280;62515;52.758;5.076;2023-05-10T02:34:22;100930.06;;;10.92;100.00
74163;BME280;62515;52.758;5.076;2023-05-10T02:36:50;100921.34;;;10.90;100.00
74163;BME280;62515;52.758;5.076;2023-05-10T02:39:20;100931.56;;;10.96;100.00
74163;BME280;62515;52.758;5.076;2023-05-10T02:41:49;100941.34;;;10.96;100.00
74163;BME280;62515;52.758;5.076;2023-05-10T02:44:18;100936.16;;;10.94;100.00
74163;BME280;62515;52.758;5.076;2023-05-10T02:46:46;100936.16;;;10.94;100.00
74163;BME280;62515;52.758;5.076;2023-05-10T02:49:13;100943.50;;;10.91;100.00
74163;BME280;62515;52.758;5.076;2023-05-10T02:51:43;100939.25;;;10.88;100.00
74163;BME280;62515;52.758;5.076;2023-05-10T02:54:12;100938.41;;;10.88;100.00
74163;BME280;62515;52.758;5.076;2023-05-10T02:57:00;100931.63;;;10.71;100.00
74163;BME280;62515;52.758;5.076;2023-05-10T02:59:29;100953.25;;;10.79;100.00
74163;BME280;62515;52.758;5.076;2023-05-10T03:01:57;100950.97;;;10.73;100.00
74163;BME280;62515;52.758;5.076;2023-05-10T03:04:24;100953.34;;;10.65;100.00
74163;BME280;62515;52.758;5.076;2023-05-10T03:06:53;100954.63;;;10.72;100.00
74163;BME280;62515;52.758;5.076;2023-05-10T03:09:20;100956.00;;;10.65;100.00
74163;BME280;62515;52.758;5.076;2023-05-10T03:11:56;100949.41;;;10.58;100.00
74163;BME280;62515;52.758;5.076;2023-05-10T03:14:34;100947.06;;;10.66;100.00
74163;BME280;62515;52.758;5.076;2023-05-10T03:17:13;100956.31;;;10.61;100.00
74163;BME280;62515;52.758;5.076;2023-05-10T03:19:45;100955.25;;;10.63;100.00
74163;BME280;62515;52.758;5.076;2023-05-10T03:22:19;100954.00;;;10.56;100.00
74163;BME280;62515;52.758;5.076;2023-05-10T03:24:48;100956.75;;;10.55;100.00
74163;BME280;62515;52.758;5.076;2023-05-10T03:27:17;100951.84;;;10.48;100.00
74163;BME280;62515;52.758;5.076;2023-05-10T03:29:45;100960.25;;;10.55;100.00
74163;BME280;62515;52.758;5.076;2023-05-10T03:32:13;100955.69;;;10.44;100.00
74163;BME280;62515;52.758;5.076;2023-05-10T03:34:41;100966.09;;;10.47;100.00
74163;BME280;62515;52.758;5.076;2023-05-10T03:37:08;100964.84;;;10.53;100.00
74163;BME280;62515;52.758;5.076;2023-05-10T03:39:35;100966.22;;;10.46;100.00
74163;BME280;62515;52.758;5.076;2023-05-10T03:42:04;100965.69;;;10.41;100.00
74163;BME280;62515;52.758;5.076;2023-05-10T03:44:33;100964.72;;;10.42;100.00
74163;BME280;62515;52.758;5.076;2023-05-10T03:46:59;100975.59;;;10.39;100.00
74163;BME280;62515;52.758;5.076;2023-05-10T03:49:27;100972.06;;;10.38;100.00
74163;BME280;62515;52.758;5.076;2023-05-10T03:51:54;100976.53;;;10.38;100.00
74163;BME280;62515;52.758;5.076;2023-05-10T03:54:20;100976.75;;;10.35;100.00
74163;BME280;62515;52.758;5.076;2023-05-10T03:56:47;100972.19;;;10.37;100.00
74163;BME280;62515;52.758;5.076;2023-05-10T03:59:15;100974.50;;;10.41;100.00
74163;BME280;62515;52.758;5.076;2023-05-10T04:01:43;100971.84;;;10.41;100.00
74163;BME280;62515;52.758;5.076;2023-05-10T04:04:10;100981.13;;;10.36;100.00
74163;BME280;62515;52.758;5.076;2023-05-10T04:06:37;100980.91;;;10.39;100.00
74163;BME280;62515;52.758;5.076;2023-05-10T04:09:04;100978.88;;;10.42;100.00
74163;BME280;62515;52.758;5.076;2023-05-10T04:11:31;100975.47;;;10.40;100.00
74163;BME280;62515;52.758;5.076;2023-05-10T04:13:58;100980.69;;;10.42;100.00
74163;BME280;62515;52.758;5.076;2023-05-10T04:16:25;100966.88;;;10.37;100.00
74163;BME280;62515;52.758;5.076;2023-05-10T04:18:53;100969.31;;;10.40;100.00
74163;BME280;62515;52.758;5.076;2023-05-10T04:21:20;100976.44;;;10.39;100.00
74163;BME280;62515;52.758;5.076;2023-05-10T04:23:46;100976.09;;;10.44;100.00
74163;BME280;62515;52.758;5.076;2023-05-10T04:26:13;100963.00;;;10.41;100.00
74163;BME280;62515;52.758;5.076;2023-05-10T04:28:40;100978.03;;;10.42;100.00
74163;BME280;62515;52.758;5.076;2023-05-10T04:31:08;100974.31;;;10.44;100.00
74163;BME280;62515;52.758;5.076;2023-05-10T04:33:36;100981.22;;;10.47;100.00
74163;BME280;62515;52.758;5.076;2023-05-10T04:36:05;100985.50;;;10.49;100.00
74163;BME280;62515;52.758;5.076;2023-05-10T04:38:32;100986.53;;;10.47;100.00
74163;BME280;62515;52.758;5.076;2023-05-10T04:41:06;100985.72;;;10.46;100.00
74163;BME280;62515;52.758;5.076;2023-05-10T04:43:33;100993.34;;;10.51;100.00
74163;BME280;62515;52.758;5.076;2023-05-10T04:45:59;100991.25;;;10.43;100.00
74163;BME280;62515;52.758;5.076;2023-05-10T04:48:26;100989.63;;;10.41;100.00
74163;BME280;62515;52.758;5.076;2023-05-10T04:50:53;101001.75;;;10.45;100.00
74163;BME280;62515;52.758;5.076;2023-05-10T04:53:21;101001.84;;;10.31;100.00
74163;BME280;62515;52.758;5.076;2023-05-10T04:55:48;101001.25;;;10.40;100.00
74163;BME280;62515;52.758;5.076;2023-05-10T04:58:14;101006.22;;;10.32;100.00
74163;BME280;62515;52.758;5.076;2023-05-10T05:00:41;101011.13;;;10.38;100.00
74163;BME280;62515;52.758;5.076;2023-05-10T05:03:08;101001.88;;;10.43;100.00
74163;BME280;62515;52.758;5.076;2023-05-10T05:05:35;101012.63;;;10.55;100.00
74163;BME280;62515;52.758;5.076;2023-05-10T05:08:02;101006.56;;;10.53;100.00
74163;BME280;62515;52.758;5.076;2023-05-10T05:10:30;101015.19;;;10.56;100.00
74163;BME280;62515;52.758;5.076;2023-05-10T05:12:57;101014.00;;;10.60;100.00
74163;BME280;62515;52.758;5.076;2023-05-10T05:15:24;101020.75;;;10.66;100.00
74163;BME280;62515;52.758;5.076;2023-05-10T05:17:50;101023.63;;;10.63;100.00
74163;BME280;62515;52.758;5.076;2023-05-10T05:20:17;101018.59;;;10.58;100.00
74163;BME280;62515;52.758;5.076;2023-05-10T05:22:44;101022.31;;;10.68;100.00
74163;BME280;62515;52.758;5.076;2023-05-10T05:25:11;101026.38;;;10.74;100.00
74163;BME280;62515;52.758;5.076;2023-05-10T05:27:39;101032.13;;;10.68;100.00
74163;BME280;62515;52.758;5.076;2023-05-10T05:30:07;101025.28;;;10.76;100.00
74163;BME280;62515;52.758;5.076;2023-05-10T05:32:34;101035.63;;;10.81;100.00
74163;BME280;62515;52.758;5.076;2023-05-10T05:35:01;101036.59;;;10.80;100.00
74163;BME280;62515;52.758;5.076;2023-05-10T05:37:28;101040.66;;;10.85;100.00
74163;BME280;62515;52.758;5.076;2023-05-10T05:39:55;101038.00;;;10.85;100.00
74163;BME280;62515;52.758;5.076;2023-05-10T05:42:21;101040.75;;;10.96;100.00
74163;BME280;62515;52.758;5.076;2023-05-10T05:44:49;101046.06;;;10.96;100.00
74163;BME280;62515;52.758;5.076;2023-05-10T05:47:16;101052.78;;;10.89;100.00
74163;BME280;62515;52.758;5.076;2023-05-10T05:49:43;101055.03;;;10.95;100.00
74163;BME280;62515;52.758;5.076;2023-05-10T05:52:10;101054.81;;;10.98;100.00
74163;BME280;62515;52.758;5.076;2023-05-10T05:54:36;101047.34;;;11.03;100.00
74163;BME280;62515;52.758;5.076;2023-05-10T05:57:03;101054.03;;;11.09;100.00
74163;BME280;62515;52.758;5.076;2023-05-10T05:59:30;101049.56;;;11.10;100.00
74163;BME280;62515;52.758;5.076;2023-05-10T06:01:58;101059.56;;;11.19;100.00
74163;BME280;62515;52.758;5.076;2023-05-10T06:04:25;101057.69;;;11.21;100.00
74163;BME280;62515;52.758;5.076;2023-05-10T06:06:52;101063.72;;;11.23;100.00
74163;BME280;62515;52.758;5.076;2023-05-10T06:09:19;101061.09;;;11.10;100.00
74163;BME280;62515;52.758;5.076;2023-05-10T06:11:46;101065.66;;;11.21;100.00
74163;BME280;62515;52.758;5.076;2023-05-10T06:14:13;101068.41;;;11.32;100.00
74163;BME280;62515;52.758;5.076;2023-05-10T06:16:39;101066.81;;;11.29;100.00
74163;BME280;62515;52.758;5.076;2023-05-10T06:19:07;101071.06;;;11.32;100.00
74163;BME280;62515;52.758;5.076;2023-05-10T06:21:34;101068.19;;;11.35;100.00
74163;BME280;62515;52.758;5.076;2023-05-10T06:24:01;101068.53;;;11.30;100.00
74163;BME280;62515;52.758;5.076;2023-05-10T06:26:28;101068.28;;;11.46;100.00
74163;BME280;62515;52.758;5.076;2023-05-10T06:28:55;101070.63;;;11.50;100.00
74163;BME280;62515;52.758;5.076;2023-05-10T06:31:22;101071.88;;;11.57;100.00
74163;BME280;62515;52.758;5.076;2023-05-10T06:33:48;101072.94;;;11.55;100.00
74163;BME280;62515;52.758;5.076;2023-05-10T06:36:17;101071.56;;;11.62;100.00
74163;BME280;62515;52.758;5.076;2023-05-10T06:38:43;101065.91;;;11.67;100.00
74163;BME280;62515;52.758;5.076;2023-05-10T06:41:10;101078.47;;;11.77;100.00
74163;BME280;62515;52.758;5.076;2023-05-10T06:43:37;101067.28;;;11.72;100.00
74163;BME280;62515;52.758;5.076;2023-05-10T06:46:04;101081.31;;;11.87;100.00
74163;BME280;62515;52.758;5.076;2023-05-10T06:48:31;101070.94;;;11.95;100.00
74163;BME280;62515;52.758;5.076;2023-05-10T06:50:58;101077.81;;;12.10;100.00
74163;BME280;62515;52.758;5.076;2023-05-10T06:53:26;101071.75;;;12.32;100.00
74163;BME280;62515;52.758;5.076;2023-05-10T06:55:53;101076.41;;;12.52;100.00
74163;BME280;62515;52.758;5.076;2023-05-10T06:58:21;101074.47;;;12.54;100.00
74163;BME280;62515;52.758;5.076;2023-05-10T07:00:48;101076.97;;;12.79;100.00
74163;BME280;62515;52.758;5.076;2023-05-10T07:03:15;101079.06;;;12.87;100.00
74163;BME280;62515;52.758;5.076;2023-05-10T07:05:41;101081.44;;;12.68;100.00
74163;BME280;62515;52.758;5.076;2023-05-10T07:08:08;101080.50;;;12.80;100.00
74163;BME280;62515;52.758;5.076;2023-05-10T07:10:37;101080.22;;;12.72;100.00
74163;BME280;62515;52.758;5.076;2023-05-10T07:13:04;101092.19;;;12.90;100.00
74163;BME280;62515;52.758;5.076;2023-05-10T07:15:31;101093.34;;;13.09;100.00
74163;BME280;62515;52.758;5.076;2023-05-10T07:17:57;101089.59;;;13.23;100.00
74163;BME280;62515;52.758;5.076;2023-05-10T07:20:24;101091.53;;;13.32;100.00
74163;BME280;62515;52.758;5.076;2023-05-10T07:22:51;101100.63;;;13.41;100.00
74163;BME280;62515;52.758;5.076;2023-05-10T07:25:18;101099.19;;;13.48;100.00
74163;BME280;62515;52.758;5.076;2023-05-10T07:27:46;101097.97;;;13.52;100.00
74163;BME280;62515;52.758;5.076;2023-05-10T07:30:13;101088.84;;;13.43;100.00
74163;BME280;62515;52.758;5.076;2023-05-10T07:32:40;101095.03;;;13.44;100.00
74163;BME280;62515;52.758;5.076;2023-05-10T07:35:08;101099.28;;;13.57;100.00
74163;BME280;62515;52.758;5.076;2023-05-10T07:37:35;101095.03;;;13.44;100.00
74163;BME280;62515;52.758;5.076;2023-05-10T07:40:02;101096.38;;;13.60;100.00
74163;BME280;62515;52.758;5.076;2023-05-10T07:42:28;101097.09;;;13.74;100.00
74163;BME280;62515;52.758;5.076;2023-05-10T07:44:56;101101.47;;;13.75;100.00
74163;BME280;62515;52.758;5.076;2023-05-10T07:47:23;101100.31;;;13.99;100.00
74163;BME280;62515;52.758;5.076;2023-05-10T07:49:50;101104.72;;;14.00;100.00
74163;BME280;62515;52.758;5.076;2023-05-10T07:52:17;101101.47;;;14.29;100.00
74163;BME280;62515;52.758;5.076;2023-05-10T07:54:44;101102.81;;;14.23;100.00
74163;BME280;62515;52.758;5.076;2023-05-10T07:57:10;101103.28;;;14.28;100.00
74163;BME280;62515;52.758;5.076;2023-05-10T07:59:37;101106.56;;;14.32;100.00
74163;BME280;62515;52.758;5.076;2023-05-10T08:02:05;101103.94;;;14.21;100.00
74163;BME280;62515;52.758;5.076;2023-05-10T08:04:32;101115.16;;;14.03;100.00
74163;BME280;62515;52.758;5.076;2023-05-10T08:06:59;101108.59;;;13.96;100.00
74163;BME280;62515;52.758;5.076;2023-05-10T08:09:26;101112.84;;;13.99;100.00
74163;BME280;62515;52.758;5.076;2023-05-10T08:11:53;101113.19;;;14.17;100.00
74163;BME280;62515;52.758;5.076;2023-05-10T08:14:20;101123.13;;;14.26;100.00
74163;BME280;62515;52.758;5.076;2023-05-10T08:16:46;101114.84;;;14.40;100.00
74163;BME280;62515;52.758;5.076;2023-05-10T08:19:14;101117.94;;;14.56;100.00
74163;BME280;62515;52.758;5.076;2023-05-10T08:21:41;101121.66;;;14.64;100.00
74163;BME280;62515;52.758;5.076;2023-05-10T08:24:08;101115.53;;;14.94;100.00
74163;BME280;62515;52.758;5.076;2023-05-10T08:26:35;101125.59;;;14.81;100.00
74163;BME280;62515;52.758;5.076;2023-05-10T08:29:02;101118.06;;;14.96;100.00
74163;BME280;62515;52.758;5.076;2023-05-10T08:31:28;101124.50;;;15.04;100.00
74163;BME280;62515;52.758;5.076;2023-05-10T08:33:55;101132.94;;;15.00;100.00
74163;BME280;62515;52.758;5.076;2023-05-10T08:36:24;101131.16;;;14.89;100.00
74163;BME280;62515;52.758;5.076;2023-05-10T08:38:51;101139.78;;;14.72;100.00
74163;BME280;62515;52.758;5.076;2023-05-10T08:41:19;101141.00;;;14.68;100.00
74163;BME280;62515;52.758;5.076;2023-05-10T08:43:47;101144.06;;;14.63;100.00
74163;BME280;62515;52.758;5.076;2023-05-10T08:46:16;101148.69;;;14.73;100.00
74163;BME280;62515;52.758;5.076;2023-05-10T08:48:44;101145.00;;;14.53;100.00
74163;BME280;62515;52.758;5.076;2023-05-10T08:51:14;101156.22;;;14.36;100.00
74163;BME280;62515;52.758;5.076;2023-05-10T08:53:44;101159.75;;;14.36;100.00
74163;BME280;62515;52.758;5.076;2023-05-10T08:56:11;101167.34;;;14.63;100.00
74163;BME280;62515;52.758;5.076;2023-05-10T08:58:38;101155.22;;;15.00;100.00
74163;BME280;62515;52.758;5.076;2023-05-10T09:01:06;101166.06;;;14.78;100.00
74163;BME280;62515;52.758;5.076;2023-05-10T09:03:34;101170.03;;;14.63;100.00
74163;BME280;62515;52.758;5.076;2023-05-10T09:06:01;101171.44;;;14.67;100.00
74163;BME280;62515;52.758;5.076;2023-05-10T09:08:28;101173.25;;;14.78;100.00
74163;BME280;62515;52.758;5.076;2023-05-10T09:10:57;101182.44;;;14.64;100.00
74163;BME280;62515;52.758;5.076;2023-05-10T09:13:24;101174.28;;;14.86;100.00
74163;BME280;62515;52.758;5.076;2023-05-10T09:15:52;101172.88;;;15.44;100.00
74163;BME280;62515;52.758;5.076;2023-05-10T09:18:20;101175.03;;;15.81;100.00
74163;BME280;62515;52.758;5.076;2023-05-10T09:20:47;101179.78;;;15.67;100.00
74163;BME280;62515;52.758;5.076;2023-05-10T09:23:14;101186.03;;;15.27;100.00
74163;BME280;62515;52.758;5.076;2023-05-10T09:25:42;101184.69;;;15.00;100.00
74163;BME280;62515;52.758;5.076;2023-05-10T09:28:10;101189.78;;;14.83;100.00
74163;BME280;62515;52.758;5.076;2023-05-10T09:30:37;101194.97;;;14.63;100.00
74163;BME280;62515;52.758;5.076;2023-05-10T09:33:04;101197.09;;;14.49;100.00
74163;BME280;62515;52.758;5.076;2023-05-10T09:35:32;101200.25;;;14.86;100.00
74163;BME280;62515;52.758;5.076;2023-05-10T09:38:00;101204.06;;;15.04;100.00
74163;BME280;62515;52.758;5.076;2023-05-10T09:40:28;101204.97;;;15.14;100.00
74163;BME280;62515;52.758;5.076;2023-05-10T09:42:56;101208.44;;;15.05;100.00
74163;BME280;62515;52.758;5.076;2023-05-10T09:45:27;101203.13;;;15.35;100.00
74163;BME280;62515;52.758;5.076;2023-05-10T09:47:54;101206.66;;;15.77;100.00
74163;BME280;62515;52.758;5.076;2023-05-10T09:50:21;101200.50;;;15.86;100.00
74163;BME280;62515;52.758;5.076;2023-05-10T09:52:50;101201.81;;;16.01;100.00
74163;BME280;62515;52.758;5.076;2023-05-10T09:55:19;101205.72;;;15.88;100.00
74163;BME280;62515;52.758;5.076;2023-05-10T09:57:46;101204.59;;;15.90;100.00
74163;BME280;62515;52.758;5.076;2023-05-10T10:00:17;101216.59;;;15.86;100.00
74163;BME280;62515;52.758;5.076;2023-05-10T10:02:47;101216.59;;;15.86;100.00
74163;BME280;62515;52.758;5.076;2023-05-10T10:05:14;101221.13;;;15.86;100.00
74163;BME280;62515;52.758;5.076;2023-05-10T10:07:42;101223.38;;;15.90;100.00
74163;BME280;62515;52.758;5.076;2023-05-10T10:10:09;101222.00;;;15.65;100.00
74163;BME280;62515;52.758;5.076;2023-05-10T10:12:36;101229.47;;;15.62;100.00
74163;BME280;62515;52.758;5.076;2023-05-10T10:15:04;101217.38;;;15.77;100.00
74163;BME280;62515;52.758;5.076;2023-05-10T10:17:31;101238.63;;;15.59;100.00
74163;BME280;62515;52.758;5.076;2023-05-10T10:20:01;101228.56;;;15.52;100.00
74163;BME280;62515;52.758;5.076;2023-05-10T10:22:29;101234.06;;;15.81;100.00
74163;BME280;62515;52.758;5.076;2023-05-10T10:24:55;101231.78;;;16.06;100.00
74163;BME280;62515;52.758;5.076;2023-05-10T10:27:25;101234.69;;;15.94;100.00
74163;BME280;62515;52.758;5.076;2023-05-10T10:30:10;101243.25;;;15.37;100.00
74163;BME280;62515;52.758;5.076;2023-05-10T10:32:54;101248.47;;;15.38;100.00
74163;BME280;62515;52.758;5.076;2023-05-10T10:35:28;101237.88;;;15.37;100.00
74163;BME280;62515;52.758;5.076;2023-05-10T10:37:56;101248.00;;;15.12;100.00
74163;BME280;62515;52.758;5.076;2023-05-10T10:40:27;101250.41;;;15.15;100.00
74163;BME280;62515;52.758;5.076;2023-05-10T10:42:54;101244.66;;;15.52;100.00
74163;BME280;62515;52.758;5.076;2023-05-10T10:45:22;101246.78;;;15.58;100.00
74163;BME280;62515;52.758;5.076;2023-05-10T10:48:05;101238.78;;;15.88;100.00
74163;BME280;62515;52.758;5.076;2023-05-10T10:50:47;101245.09;;;16.48;100.00
74163;BME280;62515;52.758;5.076;2023-05-10T10:53:14;101244.06;;;16.49;100.00
74163;BME280;62515;52.758;5.076;2023-05-10T10:55:47;101240.75;;;16.66;100.00
74163;BME280;62515;52.758;5.076;2023-05-10T10:58:29;101245.63;;;16.42;100.00
74163;BME280;62515;52.758;5.076;2023-05-10T11:01:10;101242.25;;;16.49;100.00
74163;BME280;62515;52.758;5.076;2023-05-10T11:03:37;101240.94;;;17.12;100.00
74163;BME280;62515;52.758;5.076;2023-05-10T11:06:06;101239.91;;;16.85;100.00
74163;BME280;62515;52.758;5.076;2023-05-10T11:08:34;101235.22;;;17.44;100.00
74163;BME280;62515;52.758;5.076;2023-05-10T11:11:07;101238.03;;;17.81;100.00
74163;BME280;62515;52.758;5.076;2023-05-10T11:13:38;101244.53;;;17.88;100.00
74163;BME280;62515;52.758;5.076;2023-05-10T11:16:18;101239.75;;;18.37;100.00
74163;BME280;62515;52.758;5.076;2023-05-10T11:18:52;101241.91;;;18.60;100.00
74163;BME280;62515;52.758;5.076;2023-05-10T11:21:21;101246.53;;;18.41;100.00
74163;BME280;62515;52.758;5.076;2023-05-10T11:23:49;101242.94;;;18.59;100.00
74163;BME280;62515;52.758;5.076;2023-05-10T11:26:17;101246.63;;;18.21;100.00
74163;BME280;62515;52.758;5.076;2023-05-10T11:28:46;101244.88;;;17.37;100.00
74163;BME280;62515;52.758;5.076;2023-05-10T11:31:14;101253.81;;;17.18;100.00
74163;BME280;62515;52.758;5.076;2023-05-10T11:33:45;101262.53;;;16.63;100.00
74163;BME280;62515;52.758;5.076;2023-05-10T11:36:12;101254.22;;;17.04;100.00
74163;BME280;62515;52.758;5.076;2023-05-10T11:38:40;101255.22;;;16.94;100.00
74163;BME280;62515;52.758;5.076;2023-05-10T11:41:08;101261.88;;;16.80;100.00
74163;BME280;62515;52.758;5.076;2023-05-10T11:43:35;101264.13;;;16.94;100.00
74163;BME280;62515;52.758;5.076;2023-05-10T11:46:02;101264.28;;;16.93;100.00
74163;BME280;62515;52.758;5.076;2023-05-10T11:48:29;101266.66;;;17.44;100.00
74163;BME280;62515;52.758;5.076;2023-05-10T11:50:56;101256.22;;;17.02;100.00
74163;BME280;62515;52.758;5.076;2023-05-10T11:53:25;101264.69;;;17.17;100.00
74163;BME280;62515;52.758;5.076;2023-05-10T11:55:54;101271.09;;;17.06;100.00
74163;BME280;62515;52.758;5.076;2023-05-10T11:58:20;101262.13;;;17.73;100.00
74163;BME280;62515;52.758;5.076;2023-05-10T12:00:48;101258.00;;;18.15;100.00
74163;BME280;62515;52.758;5.076;2023-05-10T12:03:15;101276.84;;;17.69;100.00
74163;BME280;62515;52.758;5.076;2023-05-10T12:05:42;101281.13;;;17.33;100.00
74163;BME280;62515;52.758;5.076;2023-05-10T12:08:13;101276.00;;;17.40;100.00
74163;BME280;62515;52.758;5.076;2023-05-10T12:10:40;101276.19;;;17.19;100.00
74163;BME280;62515;52.758;5.076;2023-05-10T12:13:12;101283.91;;;16.64;100.00
74163;BME280;62515;52.758;5.076;2023-05-10T12:15:39;101280.13;;;16.96;100.00
74163;BME280;62515;52.758;5.076;2023-05-10T12:18:08;101277.03;;;16.41;100.00
74163;BME280;62515;52.758;5.076;2023-05-10T12:20:35;101286.44;;;16.66;100.00
74163;BME280;62515;52.758;5.076;2023-05-10T12:23:02;101286.19;;;16.98;100.00
74163;BME280;62515;52.758;5.076;2023-05-10T12:25:30;101290.88;;;17.05;100.00
74163;BME280;62515;52.758;5.076;2023-05-10T12:27:59;101284.75;;;16.74;100.00
74163;BME280;62515;52.758;5.076;2023-05-10T12:30:28;101290.56;;;16.80;100.00
74163;BME280;62515;52.758;5.076;2023-05-10T12:32:59;101291.53;;;16.69;100.00
74163;BME280;62515;52.758;5.076;2023-05-10T12:35:30;101292.88;;;16.54;100.00
74163;BME280;62515;52.758;5.076;2023-05-10T12:37:56;101299.47;;;16.40;100.00
74163;BME280;62515;52.758;5.076;2023-05-10T12:40:23;101303.16;;;16.39;100.00
74163;BME280;62515;52.758;5.076;2023-05-10T12:42:50;101306.78;;;15.98;100.00
74163;BME280;62515;52.758;5.076;2023-05-10T12:45:17;101314.28;;;15.53;100.00
74163;BME280;62515;52.758;5.076;2023-05-10T12:47:46;101307.34;;;15.51;100.00
74163;BME280;62515;52.758;5.076;2023-05-10T12:50:12;101319.75;;;15.52;100.00